Lake Spring, Missouri
Current Conditions -  °F | °C
As of 3:53 PM on Thursday 27 Nov 2014 (Local Time) from KVIH Reporting Station
Few Clouds Few Clouds  
Wind Chill: 28°   Ceiling: Unl
Heat Index: 33°   Visibility: 10mi
Dew Point: 22°   Wind: 6mph
Humidity: 64%   Direction: 300°WNW
Pressure: 30.42"   Gusts: NA
Location:  37.78°N, 91.68°W
Report Text: KVIH 272153Z AUTO 30005KT 10SM FEW070 01/M06 A3042 RMK AO2 SLP311 T00061056
Loading
Personal Weather Stations






























Interactive Weather Map New forecast layout! Learn more

10-Day Weather Forecast

Advertisements
Track Severe Weather on mobile